createdAt,value
2023-05-19T00:00:01.145Z,16.87
2023-05-19T00:01:00.718Z,16.89
2023-05-19T00:02:00.814Z,16.89
2023-05-19T00:03:00.816Z,16.89
2023-05-19T00:04:00.638Z,16.89
2023-05-19T00:05:00.751Z,16.89
2023-05-19T00:06:01.226Z,16.75
2023-05-19T00:07:01.843Z,16.75
2023-05-19T00:08:00.629Z,16.75
2023-05-19T00:09:02.823Z,16.75
2023-05-19T00:10:00.656Z,16.75
2023-05-19T00:11:00.682Z,16.84
2023-05-19T00:12:00.594Z,16.84
2023-05-19T00:13:00.712Z,16.84
2023-05-19T00:14:01.290Z,16.84
2023-05-19T00:15:00.585Z,16.84
2023-05-19T00:16:00.731Z,16.83
2023-05-19T00:17:00.756Z,16.83
2023-05-19T00:18:00.660Z,16.83
2023-05-19T00:19:01.961Z,16.83
2023-05-19T00:20:00.643Z,16.83
2023-05-19T00:21:00.539Z,16.72
2023-05-19T00:22:00.540Z,16.72
2023-05-19T00:23:00.536Z,16.72
2023-05-19T00:24:00.543Z,16.72
2023-05-19T00:25:00.546Z,16.72
2023-05-19T00:26:00.560Z,16.46
2023-05-19T00:27:00.564Z,16.46
2023-05-19T00:28:00.579Z,16.46
2023-05-19T00:29:00.561Z,16.46
2023-05-19T00:30:00.622Z,16.46
2023-05-19T00:31:00.690Z,16.39
2023-05-19T00:32:00.563Z,16.39
2023-05-19T00:33:00.603Z,16.39
2023-05-19T00:34:00.683Z,16.39
2023-05-19T00:35:00.577Z,16.39
2023-05-19T00:36:01.226Z,16.32
2023-05-19T00:37:00.521Z,16.32
2023-05-19T00:38:00.583Z,16.32
2023-05-19T00:39:00.524Z,16.32
2023-05-19T00:40:00.564Z,16.32
2023-05-19T00:41:01.232Z,16.36
2023-05-19T00:42:00.568Z,16.36
2023-05-19T00:43:00.712Z,16.36
2023-05-19T00:44:00.551Z,16.36
2023-05-19T00:45:00.522Z,16.36
2023-05-19T00:46:00.751Z,16.40
2023-05-19T00:47:00.889Z,16.40
2023-05-19T00:48:00.593Z,16.40
2023-05-19T00:49:00.571Z,16.40
2023-05-19T00:50:00.635Z,16.40
2023-05-19T00:51:01.889Z,16.41
2023-05-19T00:52:00.736Z,16.41
2023-05-19T00:53:00.602Z,16.41
2023-05-19T00:54:00.582Z,16.41
2023-05-19T00:55:00.563Z,16.41
2023-05-19T00:56:01.357Z,16.33
2023-05-19T00:57:00.575Z,16.33
2023-05-19T00:58:00.578Z,16.33
2023-05-19T00:59:01.274Z,16.33
2023-05-19T01:00:00.589Z,16.33
2023-05-19T01:01:00.571Z,16.32
2023-05-19T01:02:00.556Z,16.32
2023-05-19T01:03:00.704Z,16.32
2023-05-19T01:04:00.639Z,16.32
2023-05-19T01:05:00.908Z,16.32
2023-05-19T01:06:00.845Z,16.31
2023-05-19T01:07:00.579Z,16.31
2023-05-19T01:08:00.657Z,16.31
2023-05-19T01:09:00.553Z,16.31
2023-05-19T01:10:00.603Z,16.31
2023-05-19T01:11:00.580Z,16.34
2023-05-19T01:12:00.746Z,16.34
2023-05-19T01:13:01.472Z,16.34
2023-05-19T01:14:00.567Z,16.34
2023-05-19T01:15:01.566Z,16.34
2023-05-19T01:16:10.411Z,16.35
2023-05-19T01:17:05.161Z,16.35
2023-05-19T01:18:04.062Z,16.35
2023-05-19T01:19:05.494Z,16.35
2023-05-19T01:20:10.381Z,16.35
2023-05-19T01:21:10.363Z,16.35
2023-05-19T01:22:10.380Z,16.35
2023-05-19T01:23:10.366Z,16.35
2023-05-19T01:24:10.385Z,16.35
2023-05-19T01:25:07.956Z,16.35
2023-05-19T01:26:10.362Z,16.28
2023-05-19T01:27:08.740Z,16.28
2023-05-19T01:28:10.435Z,16.28
2023-05-19T01:29:10.449Z,16.28
2023-05-19T01:30:03.821Z,16.28
2023-05-19T01:31:00.842Z,16.23
2023-05-19T01:32:02.812Z,16.23
2023-05-19T01:33:03.266Z,16.23
2023-05-19T01:34:01.770Z,16.23
2023-05-19T01:35:02.901Z,16.23
2023-05-19T01:36:01.932Z,16.06
2023-05-19T01:37:01.838Z,16.06
2023-05-19T01:38:02.135Z,16.06
2023-05-19T01:39:02.444Z,16.06
2023-05-19T01:40:00.748Z,16.06
2023-05-19T01:41:01.801Z,15.97
2023-05-19T01:42:01.221Z,15.97
2023-05-19T01:43:00.948Z,15.97
2023-05-19T01:44:01.090Z,15.97
2023-05-19T01:45:01.214Z,15.97
2023-05-19T01:46:01.653Z,15.91
2023-05-19T01:47:01.266Z,15.91
2023-05-19T01:48:01.838Z,15.91
2023-05-19T01:49:00.800Z,15.91
2023-05-19T01:50:00.632Z,15.91
2023-05-19T01:51:00.624Z,15.88
2023-05-19T01:52:00.868Z,15.88
2023-05-19T01:53:01.010Z,15.88
2023-05-19T01:54:00.787Z,15.88
2023-05-19T01:55:00.744Z,15.88
2023-05-19T01:56:00.635Z,15.72
2023-05-19T01:57:10.404Z,15.72
2023-05-19T01:58:08.595Z,15.72
2023-05-19T01:59:08.304Z,15.72
2023-05-19T02:00:00.675Z,15.72
2023-05-19T02:01:00.641Z,15.63
2023-05-19T02:02:05.241Z,15.63
2023-05-19T02:03:08.251Z,15.63
2023-05-19T02:04:07.768Z,15.63
2023-05-19T02:05:08.259Z,15.63
2023-05-19T02:06:10.389Z,15.59
2023-05-19T02:07:04.282Z,15.59
2023-05-19T02:08:05.242Z,15.59
2023-05-19T02:09:08.016Z,15.59
2023-05-19T02:10:04.981Z,15.59
2023-05-19T02:11:03.344Z,15.58
2023-05-19T02:12:05.326Z,15.58
2023-05-19T02:13:03.446Z,15.58
2023-05-19T02:14:04.716Z,15.58
2023-05-19T02:15:01.561Z,15.58
2023-05-19T02:16:03.308Z,15.57
2023-05-19T02:17:03.220Z,15.57
2023-05-19T02:18:01.602Z,15.57
2023-05-19T02:19:00.717Z,15.57
2023-05-19T02:20:00.961Z,15.57
2023-05-19T02:21:01.036Z,15.49
2023-05-19T02:22:00.656Z,15.49
2023-05-19T02:23:00.698Z,15.49
2023-05-19T02:24:00.701Z,15.49
2023-05-19T02:25:01.037Z,15.49
2023-05-19T02:26:00.685Z,15.44
2023-05-19T02:27:00.768Z,15.44
2023-05-19T02:28:00.875Z,15.44
2023-05-19T02:29:00.747Z,15.44
2023-05-19T02:30:00.776Z,15.44
2023-05-19T02:31:00.738Z,15.50
2023-05-19T02:32:00.794Z,15.50
2023-05-19T02:33:00.755Z,15.50
2023-05-19T02:34:00.646Z,15.50
2023-05-19T02:35:00.721Z,15.50
2023-05-19T02:36:00.708Z,15.54
2023-05-19T02:37:00.708Z,15.54
2023-05-19T02:38:00.712Z,15.54
2023-05-19T02:39:00.666Z,15.54
2023-05-19T02:40:00.640Z,15.54
2023-05-19T02:41:00.766Z,15.41
2023-05-19T02:42:00.653Z,15.41
2023-05-19T02:43:00.751Z,15.41
2023-05-19T02:44:00.740Z,15.41
2023-05-19T02:45:00.707Z,15.41
2023-05-19T02:46:00.753Z,15.40
2023-05-19T02:47:00.705Z,15.40
2023-05-19T02:48:00.698Z,15.40
2023-05-19T02:49:00.658Z,15.40
2023-05-19T02:50:00.682Z,15.40
2023-05-19T02:51:00.599Z,15.47
2023-05-19T02:52:01.194Z,15.47
2023-05-19T02:53:00.606Z,15.47
2023-05-19T02:54:00.589Z,15.47
2023-05-19T02:55:00.749Z,15.47
2023-05-19T02:56:00.640Z,15.51
2023-05-19T02:57:00.795Z,15.51
2023-05-19T02:58:00.550Z,15.51
2023-05-19T02:59:00.635Z,15.51
2023-05-19T03:00:00.680Z,15.51
2023-05-19T03:01:00.568Z,15.45
2023-05-19T03:02:01.072Z,15.45
2023-05-19T03:03:00.703Z,15.45
2023-05-19T03:04:01.150Z,15.45
2023-05-19T03:05:00.643Z,15.45
2023-05-19T03:06:00.611Z,15.18
2023-05-19T03:07:00.728Z,15.18
2023-05-19T03:08:00.574Z,15.18
2023-05-19T03:09:00.584Z,15.18
2023-05-19T03:10:00.733Z,15.18
2023-05-19T03:11:01.060Z,15.12
2023-05-19T03:12:00.590Z,15.12
2023-05-19T03:13:00.577Z,15.12
2023-05-19T03:14:00.568Z,15.12
2023-05-19T03:15:00.589Z,15.12
2023-05-19T03:16:00.702Z,15.06
2023-05-19T03:17:00.633Z,15.06
2023-05-19T03:18:00.613Z,15.06
2023-05-19T03:19:00.791Z,15.06
2023-05-19T03:20:00.655Z,15.06
2023-05-19T03:21:00.538Z,15.07
2023-05-19T03:22:00.547Z,15.07
2023-05-19T03:23:00.530Z,15.07
2023-05-19T03:24:00.706Z,15.07
2023-05-19T03:25:00.580Z,15.07
2023-05-19T03:26:00.523Z,15.12
2023-05-19T03:27:00.596Z,15.12
2023-05-19T03:28:00.541Z,15.12
2023-05-19T03:29:00.567Z,15.12
2023-05-19T03:30:00.529Z,15.12
2023-05-19T03:31:00.576Z,15.16
2023-05-19T03:32:00.599Z,15.16
2023-05-19T03:33:00.567Z,15.16
2023-05-19T03:34:00.577Z,15.16
2023-05-19T03:35:00.542Z,15.16
2023-05-19T03:36:00.549Z,15.15
2023-05-19T03:37:00.532Z,15.15
2023-05-19T03:38:00.558Z,15.15
2023-05-19T03:39:00.536Z,15.15
2023-05-19T03:40:00.579Z,15.15
2023-05-19T03:41:00.526Z,15.17
2023-05-19T03:42:00.521Z,15.17
2023-05-19T03:43:00.607Z,15.17
2023-05-19T03:44:00.535Z,15.17
2023-05-19T03:45:00.600Z,15.17
2023-05-19T03:46:00.722Z,15.00
2023-05-19T03:47:00.533Z,15.00
2023-05-19T03:48:00.548Z,15.00
2023-05-19T03:49:00.566Z,15.00
2023-05-19T03:50:00.535Z,15.00
2023-05-19T03:51:00.570Z,14.90
2023-05-19T03:52:00.524Z,14.90
2023-05-19T03:53:00.536Z,14.90
2023-05-19T03:54:00.532Z,14.90
2023-05-19T03:55:00.540Z,14.90
2023-05-19T03:56:00.576Z,14.90
2023-05-19T03:57:00.844Z,14.90
2023-05-19T03:58:00.542Z,14.90
2023-05-19T03:59:00.544Z,14.90
2023-05-19T04:00:00.628Z,14.90
2023-05-19T04:01:00.522Z,14.92
2023-05-19T04:02:00.608Z,14.92
2023-05-19T04:03:00.749Z,14.92
2023-05-19T04:04:00.572Z,14.92
2023-05-19T04:05:00.524Z,14.92
2023-05-19T04:06:00.527Z,14.80
2023-05-19T04:07:00.536Z,14.80
2023-05-19T04:08:00.549Z,14.80
2023-05-19T04:09:01.313Z,14.80
2023-05-19T04:10:02.380Z,14.80
2023-05-19T04:11:00.601Z,14.72
2023-05-19T04:12:00.889Z,14.72
2023-05-19T04:13:00.620Z,14.72
2023-05-19T04:14:03.486Z,14.72
2023-05-19T04:15:00.607Z,14.72
2023-05-19T04:16:00.759Z,14.77
2023-05-19T04:17:00.574Z,14.77
2023-05-19T04:18:00.661Z,14.77
2023-05-19T04:19:00.655Z,14.77
2023-05-19T04:20:00.532Z,14.77
2023-05-19T04:21:00.542Z,14.83
2023-05-19T04:22:00.529Z,14.83
2023-05-19T04:23:00.535Z,14.83
2023-05-19T04:24:00.587Z,14.83
2023-05-19T04:25:00.539Z,14.83
2023-05-19T04:26:00.522Z,14.88
2023-05-19T04:27:00.577Z,14.88
2023-05-19T04:28:00.575Z,14.88
2023-05-19T04:29:00.527Z,14.88
2023-05-19T04:30:00.544Z,14.88
2023-05-19T04:31:00.559Z,14.89
2023-05-19T04:32:00.528Z,14.89
2023-05-19T04:33:00.623Z,14.89
2023-05-19T04:34:00.566Z,14.89
2023-05-19T04:35:00.558Z,14.89
2023-05-19T04:36:00.562Z,14.87
2023-05-19T04:37:00.961Z,14.87
2023-05-19T04:38:00.528Z,14.87
2023-05-19T04:39:00.526Z,14.87
2023-05-19T04:40:00.547Z,14.87
2023-05-19T04:41:00.538Z,14.92
2023-05-19T04:42:00.514Z,14.92
2023-05-19T04:43:00.534Z,14.92
2023-05-19T04:44:00.580Z,14.92
2023-05-19T04:45:00.531Z,14.92
2023-05-19T04:46:00.606Z,14.94
2023-05-19T04:47:01.055Z,14.94
2023-05-19T04:48:00.576Z,14.94
2023-05-19T04:49:00.545Z,14.94
2023-05-19T04:50:00.538Z,14.94
2023-05-19T04:51:00.547Z,14.95
2023-05-19T04:52:00.531Z,14.95
2023-05-19T04:53:00.527Z,14.95
2023-05-19T04:54:00.573Z,14.95
2023-05-19T04:55:00.555Z,14.95
2023-05-19T04:56:00.650Z,14.96
2023-05-19T04:57:00.650Z,14.96
2023-05-19T04:58:00.547Z,14.96
2023-05-19T04:59:00.545Z,14.96
2023-05-19T05:00:00.619Z,14.96
2023-05-19T05:01:00.532Z,15.00
2023-05-19T05:02:00.591Z,15.00
2023-05-19T05:03:00.654Z,15.00
2023-05-19T05:04:00.591Z,15.00
2023-05-19T05:05:00.594Z,15.00
2023-05-19T05:06:00.538Z,14.97
2023-05-19T05:07:00.547Z,14.97
2023-05-19T05:08:00.626Z,14.97
2023-05-19T05:09:00.587Z,14.97
2023-05-19T05:10:00.537Z,14.97
2023-05-19T05:11:00.765Z,14.98
2023-05-19T05:12:00.800Z,14.98
2023-05-19T05:13:00.780Z,14.98
2023-05-19T05:14:00.570Z,14.98
2023-05-19T05:15:00.760Z,14.98
2023-05-19T05:16:00.692Z,15.05
2023-05-19T05:17:00.691Z,15.05
2023-05-19T05:18:00.847Z,15.05
2023-05-19T05:19:01.062Z,15.05
2023-05-19T05:20:01.102Z,15.05
2023-05-19T05:21:00.641Z,14.97
2023-05-19T05:22:00.631Z,14.97
2023-05-19T05:23:00.712Z,14.97
2023-05-19T05:24:00.568Z,14.97
2023-05-19T05:25:00.924Z,14.97
2023-05-19T05:26:05.363Z,14.99
2023-05-19T05:27:00.520Z,14.99
2023-05-19T05:28:00.589Z,14.99
2023-05-19T05:29:00.799Z,14.99
2023-05-19T05:30:00.559Z,14.99
2023-05-19T05:31:00.542Z,14.92
2023-05-19T05:32:00.612Z,14.92
2023-05-19T05:33:01.102Z,14.92
2023-05-19T05:34:00.520Z,14.92
2023-05-19T05:35:00.547Z,14.92
2023-05-19T05:36:00.527Z,14.91
2023-05-19T05:37:00.510Z,14.91
2023-05-19T05:38:01.082Z,14.91
2023-05-19T05:39:00.607Z,14.91
2023-05-19T05:40:00.577Z,14.91
2023-05-19T05:41:00.650Z,15.01
2023-05-19T05:42:00.518Z,15.01
2023-05-19T05:43:00.514Z,15.01
2023-05-19T05:44:00.824Z,15.01
2023-05-19T05:45:00.582Z,15.01
2023-05-19T05:46:00.605Z,15.11
2023-05-19T05:47:01.100Z,15.11
2023-05-19T05:48:00.747Z,15.11
2023-05-19T05:49:00.731Z,15.11
2023-05-19T05:50:00.690Z,15.11
2023-05-19T05:51:00.616Z,15.23
2023-05-19T05:52:06.341Z,15.23
2023-05-19T05:53:00.660Z,15.23
2023-05-19T05:54:00.835Z,15.23
2023-05-19T05:55:00.652Z,15.23
2023-05-19T05:56:00.595Z,15.33
2023-05-19T05:57:00.744Z,15.33
2023-05-19T05:58:00.553Z,15.33
2023-05-19T05:59:00.891Z,15.33
2023-05-19T06:00:00.548Z,15.33
2023-05-19T06:01:00.552Z,15.25
2023-05-19T06:02:00.559Z,15.25
2023-05-19T06:03:00.709Z,15.25
2023-05-19T06:04:00.575Z,15.25
2023-05-19T06:05:00.676Z,15.25
2023-05-19T06:06:00.623Z,15.07
2023-05-19T06:07:00.531Z,15.07
2023-05-19T06:08:00.551Z,15.07
2023-05-19T06:09:00.612Z,15.07
2023-05-19T06:10:00.605Z,15.07
2023-05-19T06:11:00.719Z,15.20
2023-05-19T06:12:00.556Z,15.20
2023-05-19T06:13:00.533Z,15.20
2023-05-19T06:14:00.553Z,15.20
2023-05-19T06:15:01.511Z,15.20
2023-05-19T06:16:02.224Z,15.35
2023-05-19T06:17:00.511Z,15.35
2023-05-19T06:18:00.611Z,15.35
2023-05-19T06:19:00.567Z,15.35
2023-05-19T06:20:01.368Z,15.35
2023-05-19T06:21:00.536Z,15.36
2023-05-19T06:22:00.560Z,15.36
2023-05-19T06:23:00.569Z,15.36
2023-05-19T06:24:00.532Z,15.36
2023-05-19T06:25:00.579Z,15.36
2023-05-19T06:26:00.517Z,15.49
2023-05-19T06:27:00.531Z,15.49
2023-05-19T06:28:00.556Z,15.49
2023-05-19T06:29:00.537Z,15.49
2023-05-19T06:30:00.795Z,15.49
2023-05-19T06:31:00.565Z,15.60
2023-05-19T06:32:00.545Z,15.60
2023-05-19T06:33:00.638Z,15.60
2023-05-19T06:34:00.594Z,15.60
2023-05-19T06:35:00.559Z,15.60
2023-05-19T06:36:00.536Z,15.67
2023-05-19T06:37:00.523Z,15.67
2023-05-19T06:38:00.543Z,15.67
2023-05-19T06:39:02.608Z,15.67
2023-05-19T06:40:00.530Z,15.67
2023-05-19T06:41:00.533Z,15.78
2023-05-19T06:42:00.568Z,15.78
2023-05-19T06:43:00.567Z,15.78
2023-05-19T06:44:00.601Z,15.78
2023-05-19T06:45:00.611Z,15.78
2023-05-19T06:46:00.572Z,15.98
2023-05-19T06:47:00.586Z,15.98
2023-05-19T06:48:00.666Z,15.98
2023-05-19T06:49:00.599Z,15.98
2023-05-19T06:50:00.545Z,15.98
2023-05-19T06:51:00.531Z,16.54
2023-05-19T06:52:00.550Z,16.54
2023-05-19T06:53:00.564Z,16.54
2023-05-19T06:54:00.590Z,16.54
2023-05-19T06:55:00.670Z,16.54
2023-05-19T06:56:00.652Z,17.61
2023-05-19T06:57:00.525Z,17.61
2023-05-19T06:58:00.555Z,17.61
2023-05-19T06:59:00.486Z,17.61
2023-05-19T07:00:00.550Z,17.61
2023-05-19T07:01:00.534Z,18.65
2023-05-19T07:02:00.561Z,18.65
2023-05-19T07:03:00.578Z,18.65
2023-05-19T07:04:00.724Z,18.65
2023-05-19T07:05:00.534Z,18.65
2023-05-19T07:06:00.659Z,18.73
2023-05-19T07:07:00.592Z,18.73
2023-05-19T07:08:00.542Z,18.73
2023-05-19T07:09:00.548Z,18.73
2023-05-19T07:10:00.565Z,18.73
2023-05-19T07:11:00.534Z,18.54
2023-05-19T07:12:00.531Z,18.54
2023-05-19T07:13:00.533Z,18.54
2023-05-19T07:14:00.526Z,18.54
2023-05-19T07:15:00.607Z,18.54
2023-05-19T07:16:00.654Z,18.23
2023-05-19T07:17:00.570Z,18.23
2023-05-19T07:18:00.619Z,18.23
2023-05-19T07:19:00.600Z,18.23
2023-05-19T07:20:00.573Z,18.23
2023-05-19T07:21:00.537Z,18.14
2023-05-19T07:22:00.525Z,18.14
2023-05-19T07:23:00.528Z,18.14
2023-05-19T07:24:00.548Z,18.14
2023-05-19T07:25:00.538Z,18.14
2023-05-19T07:26:00.536Z,18.04
2023-05-19T07:27:00.568Z,18.04
2023-05-19T07:28:00.587Z,18.04
2023-05-19T07:29:00.538Z,18.04
2023-05-19T07:30:00.523Z,18.04
2023-05-19T07:31:00.541Z,17.90
2023-05-19T07:32:00.600Z,17.90
2023-05-19T07:33:00.606Z,17.90
2023-05-19T07:34:00.542Z,17.90
2023-05-19T07:35:00.565Z,17.90
2023-05-19T07:36:00.576Z,17.91
2023-05-19T07:37:00.540Z,17.91
2023-05-19T07:38:00.526Z,17.91
2023-05-19T07:39:00.629Z,17.91
2023-05-19T07:40:00.558Z,17.91
2023-05-19T07:41:01.051Z,17.85
2023-05-19T07:42:00.957Z,17.85
2023-05-19T07:43:00.512Z,17.85
2023-05-19T07:44:00.529Z,17.85
2023-05-19T07:45:00.644Z,17.85
2023-05-19T07:46:00.765Z,17.89
2023-05-19T07:47:00.778Z,17.89
2023-05-19T07:48:00.651Z,17.89
2023-05-19T07:49:00.527Z,17.89
2023-05-19T07:50:00.537Z,17.89
2023-05-19T07:51:00.977Z,17.92
2023-05-19T07:52:00.534Z,17.92
2023-05-19T07:53:00.539Z,17.92
2023-05-19T07:54:00.644Z,17.92
2023-05-19T07:55:00.531Z,17.92
2023-05-19T07:56:00.536Z,18.02
2023-05-19T07:57:00.533Z,18.02
2023-05-19T07:58:00.567Z,18.02
2023-05-19T07:59:00.536Z,18.02
2023-05-19T08:00:00.543Z,18.02
2023-05-19T08:01:00.569Z,18.10
2023-05-19T08:02:00.649Z,18.10
2023-05-19T08:03:00.600Z,18.10
2023-05-19T08:04:00.637Z,18.10
2023-05-19T08:05:00.542Z,18.10
2023-05-19T08:06:00.574Z,18.05
2023-05-19T08:07:00.533Z,18.05
2023-05-19T08:08:00.750Z,18.05
2023-05-19T08:09:00.522Z,18.05
2023-05-19T08:10:00.522Z,18.05
2023-05-19T08:11:01.500Z,18.02
2023-05-19T08:12:00.553Z,18.02
2023-05-19T08:13:00.587Z,18.02
2023-05-19T08:14:00.519Z,18.02
2023-05-19T08:15:01.842Z,18.02
2023-05-19T08:16:00.666Z,17.86
2023-05-19T08:17:00.536Z,17.86
2023-05-19T08:18:00.615Z,17.86
2023-05-19T08:19:00.577Z,17.86
2023-05-19T08:20:00.512Z,17.86
2023-05-19T08:21:00.544Z,18.00
2023-05-19T08:22:00.529Z,18.00
2023-05-19T08:23:00.547Z,18.00
2023-05-19T08:24:00.599Z,18.00
2023-05-19T08:25:00.549Z,18.00
2023-05-19T08:26:00.581Z,17.98
2023-05-19T08:27:00.533Z,17.98
2023-05-19T08:28:00.526Z,17.98
2023-05-19T08:29:00.525Z,17.98
2023-05-19T08:30:00.527Z,17.98
2023-05-19T08:31:00.553Z,17.99
2023-05-19T08:32:00.523Z,17.99
2023-05-19T08:33:00.595Z,17.99
2023-05-19T08:34:00.542Z,17.99
2023-05-19T08:35:00.577Z,17.99
2023-05-19T08:36:00.539Z,17.78
2023-05-19T08:37:00.534Z,17.78
2023-05-19T08:38:00.532Z,17.78
2023-05-19T08:39:00.557Z,17.78
2023-05-19T08:40:00.538Z,17.78
2023-05-19T08:41:00.588Z,17.75
2023-05-19T08:42:00.578Z,17.75
2023-05-19T08:43:00.564Z,17.75
2023-05-19T08:44:00.519Z,17.75
2023-05-19T08:45:01.253Z,17.75
2023-05-19T08:46:02.664Z,17.57
2023-05-19T08:47:02.043Z,17.57
2023-05-19T08:48:00.604Z,17.57
2023-05-19T08:49:04.160Z,17.57
2023-05-19T08:50:03.579Z,17.57
2023-05-19T08:51:09.430Z,17.59
2023-05-19T08:52:08.678Z,17.59
2023-05-19T08:53:03.576Z,17.59
2023-05-19T08:54:07.985Z,17.59
2023-05-19T08:55:03.788Z,17.59
2023-05-19T08:56:03.839Z,17.49
2023-05-19T08:57:00.840Z,17.49
2023-05-19T08:58:02.302Z,17.49
2023-05-19T08:59:01.157Z,17.49
2023-05-19T09:00:01.203Z,17.49
2023-05-19T09:01:01.256Z,17.37
2023-05-19T09:02:01.072Z,17.37
2023-05-19T09:03:17.741Z,17.37
2023-05-19T09:04:00.693Z,17.37
2023-05-19T09:05:01.012Z,17.37
2023-05-19T09:06:00.597Z,17.43
2023-05-19T09:07:00.519Z,17.43
2023-05-19T09:08:00.769Z,17.43
2023-05-19T09:09:00.557Z,17.43
2023-05-19T09:10:01.236Z,17.43
2023-05-19T09:11:00.571Z,17.58
2023-05-19T09:12:00.553Z,17.58
2023-05-19T09:13:00.516Z,17.58
2023-05-19T09:14:00.558Z,17.58
2023-05-19T09:15:00.620Z,17.58
2023-05-19T09:16:00.962Z,17.63
2023-05-19T09:17:00.667Z,17.63
2023-05-19T09:18:10.663Z,17.63
2023-05-19T09:19:00.602Z,17.63
2023-05-19T09:20:01.109Z,17.63
2023-05-19T09:21:00.736Z,17.61
2023-05-19T09:22:01.018Z,17.61
2023-05-19T09:23:00.548Z,17.61
2023-05-19T09:24:04.558Z,17.61
2023-05-19T09:25:00.507Z,17.61
2023-05-19T09:26:01.396Z,17.57
2023-05-19T09:27:00.665Z,17.57
2023-05-19T09:28:00.520Z,17.57
2023-05-19T09:29:00.535Z,17.57
2023-05-19T09:30:07.894Z,17.57
2023-05-19T09:31:02.226Z,17.87
2023-05-19T09:32:00.872Z,17.87
2023-05-19T09:33:00.594Z,17.87
2023-05-19T09:34:00.602Z,17.87
2023-05-19T09:35:01.709Z,17.87
2023-05-19T09:36:00.740Z,17.97
2023-05-19T09:37:00.588Z,17.97
2023-05-19T09:38:00.525Z,17.97
2023-05-19T09:39:00.517Z,17.97
2023-05-19T09:40:00.577Z,17.97
2023-05-19T09:41:00.772Z,17.87
2023-05-19T09:42:03.448Z,17.87
2023-05-19T09:43:04.041Z,17.87
2023-05-19T09:44:00.567Z,17.87
2023-05-19T09:45:02.277Z,17.87
2023-05-19T09:46:04.484Z,17.97
2023-05-19T09:47:00.528Z,17.97
2023-05-19T09:48:02.766Z,17.97
2023-05-19T09:49:08.469Z,17.97
2023-05-19T09:50:00.588Z,17.97
2023-05-19T09:51:00.914Z,18.21
2023-05-19T09:52:02.252Z,18.21
2023-05-19T09:53:00.637Z,18.21
2023-05-19T09:54:00.568Z,18.21
2023-05-19T09:55:00.996Z,18.21
2023-05-19T09:56:01.120Z,18.54
2023-05-19T09:57:01.608Z,18.54
2023-05-19T09:58:00.860Z,18.54
2023-05-19T09:59:02.447Z,18.54
2023-05-19T10:00:01.573Z,18.54
2023-05-19T10:01:00.769Z,18.53
2023-05-19T10:02:00.558Z,18.53
2023-05-19T10:03:02.861Z,18.53
2023-05-19T10:04:03.722Z,18.53
2023-05-19T10:05:01.458Z,18.53
2023-05-19T10:06:00.724Z,18.56
2023-05-19T10:07:02.450Z,18.56
2023-05-19T10:08:00.624Z,18.56
2023-05-19T10:09:00.862Z,18.56
2023-05-19T10:10:00.923Z,18.56
2023-05-19T10:11:01.274Z,18.53
2023-05-19T10:12:01.315Z,18.53
2023-05-19T10:13:01.172Z,18.53
2023-05-19T10:14:00.564Z,18.53
2023-05-19T10:15:00.717Z,18.53
2023-05-19T10:16:01.080Z,18.58
2023-05-19T10:17:00.745Z,18.58
2023-05-19T10:18:01.856Z,18.58
2023-05-19T10:19:01.269Z,18.58
2023-05-19T10:20:01.237Z,18.58
2023-05-19T10:21:01.322Z,18.49
2023-05-19T10:22:00.648Z,18.49
2023-05-19T10:23:00.555Z,18.49
2023-05-19T10:24:00.514Z,18.49
2023-05-19T10:25:00.532Z,18.49
2023-05-19T10:26:02.835Z,18.63
2023-05-19T10:27:04.204Z,18.63
2023-05-19T10:28:05.818Z,18.63
2023-05-19T10:29:01.185Z,18.63
2023-05-19T10:30:03.254Z,18.63
2023-05-19T10:31:01.542Z,18.73
2023-05-19T10:32:03.654Z,18.73
2023-05-19T10:33:02.683Z,18.73
2023-05-19T10:34:10.481Z,18.73
2023-05-19T10:35:04.140Z,18.73
2023-05-19T10:36:00.478Z,18.50
2023-05-19T10:37:10.386Z,18.50
2023-05-19T10:38:00.493Z,18.50
2023-05-19T10:39:10.389Z,18.50
2023-05-19T10:40:04.396Z,18.50
2023-05-19T10:41:10.408Z,18.83
2023-05-19T10:42:10.333Z,18.83
2023-05-19T10:43:07.831Z,18.83
2023-05-19T10:44:00.490Z,18.83
2023-05-19T10:45:10.420Z,18.83
2023-05-19T10:46:00.585Z,18.75
2023-05-19T10:47:00.587Z,18.75
2023-05-19T10:48:00.642Z,18.75
2023-05-19T10:49:00.518Z,18.75
2023-05-19T10:50:00.536Z,18.75
2023-05-19T10:51:00.565Z,18.54
2023-05-19T10:52:00.516Z,18.54
2023-05-19T10:53:01.407Z,18.54
2023-05-19T10:54:00.983Z,18.54
2023-05-19T10:55:00.546Z,18.54
2023-05-19T10:56:01.271Z,18.32
2023-05-19T10:57:00.521Z,18.32
2023-05-19T10:58:00.567Z,18.32
2023-05-19T10:59:01.024Z,18.32
2023-05-19T11:00:02.429Z,18.32
2023-05-19T11:01:00.539Z,18.52
2023-05-19T11:02:04.107Z,18.52
2023-05-19T11:03:10.437Z,18.52
2023-05-19T11:04:04.767Z,18.52
2023-05-19T11:05:06.432Z,18.52
2023-05-19T11:06:10.404Z,18.24
2023-05-19T11:07:00.838Z,18.24
2023-05-19T11:08:00.524Z,18.24
2023-05-19T11:09:08.248Z,18.24
2023-05-19T11:10:04.643Z,18.24
2023-05-19T11:11:10.380Z,18.24
2023-05-19T11:12:01.688Z,18.24
2023-05-19T11:13:00.585Z,18.24
2023-05-19T11:14:00.554Z,18.24
2023-05-19T11:15:02.029Z,18.24
2023-05-19T11:16:05.996Z,18.28
2023-05-19T11:17:00.693Z,18.28
2023-05-19T11:18:00.679Z,18.28
2023-05-19T11:19:00.589Z,18.28
2023-05-19T11:20:00.561Z,18.28
2023-05-19T11:21:00.735Z,18.23
2023-05-19T11:22:10.381Z,18.23
2023-05-19T11:23:04.750Z,18.23
2023-05-19T11:24:00.690Z,18.23
2023-05-19T11:25:00.526Z,18.23
2023-05-19T11:26:01.023Z,18.26
2023-05-19T11:27:10.397Z,18.26
2023-05-19T11:28:01.413Z,18.26
2023-05-19T11:29:00.578Z,18.26
2023-05-19T11:30:09.039Z,18.26
2023-05-19T11:31:01.198Z,18.18
2023-05-19T11:32:00.655Z,18.18
2023-05-19T11:33:00.657Z,18.18
2023-05-19T11:34:00.572Z,18.18
2023-05-19T11:35:01.110Z,18.18
2023-05-19T11:36:00.559Z,18.30
2023-05-19T11:37:00.550Z,18.30
2023-05-19T11:38:00.799Z,18.30
2023-05-19T11:39:01.013Z,18.30
2023-05-19T11:40:01.248Z,18.30
2023-05-19T11:41:00.564Z,18.19
2023-05-19T11:42:00.611Z,18.19
2023-05-19T11:43:00.514Z,18.19
2023-05-19T11:44:00.538Z,18.19
2023-05-19T11:45:00.904Z,18.19
2023-05-19T11:46:00.651Z,18.57
2023-05-19T11:47:00.637Z,18.57
2023-05-19T11:48:03.077Z,18.57
2023-05-19T11:49:00.567Z,18.57
2023-05-19T11:50:00.616Z,18.57
2023-05-19T11:51:00.542Z,18.60
2023-05-19T11:52:00.577Z,18.60
2023-05-19T11:53:00.559Z,18.60
2023-05-19T11:54:01.537Z,18.60
2023-05-19T11:55:00.644Z,18.60
2023-05-19T11:56:03.575Z,18.29
2023-05-19T11:57:00.808Z,18.29
2023-05-19T11:58:04.449Z,18.29
2023-05-19T11:59:00.522Z,18.29
2023-05-19T12:00:00.928Z,18.29
2023-05-19T12:01:02.641Z,18.34
2023-05-19T12:02:01.865Z,18.34
2023-05-19T12:03:00.574Z,18.34
2023-05-19T12:04:02.136Z,18.34
2023-05-19T12:05:00.571Z,18.34
2023-05-19T12:06:02.325Z,18.30
2023-05-19T12:07:00.559Z,18.30
2023-05-19T12:08:01.327Z,18.30
2023-05-19T12:09:00.519Z,18.30
2023-05-19T12:10:00.564Z,18.30
2023-05-19T12:11:00.572Z,18.40
2023-05-19T12:12:01.560Z,18.40
2023-05-19T12:13:00.513Z,18.40
2023-05-19T12:14:00.722Z,18.40
2023-05-19T12:15:01.523Z,18.40
2023-05-19T12:16:02.329Z,18.55
2023-05-19T12:17:10.383Z,18.55
2023-05-19T12:18:01.058Z,18.55
2023-05-19T12:19:00.939Z,18.55
2023-05-19T12:20:00.581Z,18.55
2023-05-19T12:21:00.553Z,18.66
2023-05-19T12:22:02.214Z,18.66
2023-05-19T12:23:01.267Z,18.66
2023-05-19T12:24:00.554Z,18.66
2023-05-19T12:25:01.009Z,18.66
2023-05-19T12:26:00.561Z,18.41
2023-05-19T12:27:04.510Z,18.41
2023-05-19T12:28:00.908Z,18.41
2023-05-19T12:29:00.570Z,18.41
2023-05-19T12:30:02.017Z,18.41
2023-05-19T12:31:01.318Z,18.74
2023-05-19T12:32:00.658Z,18.74
2023-05-19T12:33:00.683Z,18.74
2023-05-19T12:34:00.556Z,18.74
2023-05-19T12:35:01.847Z,18.74
2023-05-19T12:36:00.510Z,18.90
2023-05-19T12:37:01.132Z,18.90
2023-05-19T12:38:02.340Z,18.90
2023-05-19T12:39:00.577Z,18.90
2023-05-19T12:40:01.375Z,18.90
2023-05-19T12:41:00.526Z,18.89
2023-05-19T12:42:03.182Z,18.89
2023-05-19T12:43:00.518Z,18.89
2023-05-19T12:44:00.531Z,18.89
2023-05-19T12:45:03.353Z,18.89
2023-05-19T12:46:08.442Z,18.72
2023-05-19T12:47:03.154Z,18.72
2023-05-19T12:48:02.146Z,18.72
2023-05-19T12:49:00.576Z,18.72
2023-05-19T12:50:00.470Z,18.72
2023-05-19T12:51:00.595Z,18.76
2023-05-19T12:52:03.048Z,18.76